Terminal Aerodrome Forecast
Issued by NWS

Current Version | Previous Version | Graphics & Text | Print | Product List | Glossary On
Versions: 1 2 3 4 5 6 7 8 9 10 11 12 13 14 15 16
469
FTUS41 KILN 051133
TAFLUK
TAF
KLUK 051133Z 0512/0612 25003KT P6SM SKC
     FM051600 22007KT P6SM FEW060 SCT250
     FM060600 24002KT P6SM SCT250=

USA.gov is the U.S. government's official web portal to all federal, state and local government web resources and services.